sensor_id;sensor_type;location;lat;lon;timestamp;temperature;humidity
51841;DHT22;37888;53.246;6.658;2024-03-29T09:14:55;12.20;24.90
51841;DHT22;37888;53.246;6.658;2024-03-29T09:17:21;12.60;22.90
51841;DHT22;37888;53.246;6.658;2024-03-29T09:19:49;12.80;20.10
51841;DHT22;37888;53.246;6.658;2024-03-29T09:22:15;13.00;15.10
51841;DHT22;37888;53.246;6.658;2024-03-29T09:24:45;13.10;15.90
51841;DHT22;37888;53.246;6.658;2024-03-29T09:27:11;13.30;15.70
51841;DHT22;37888;53.246;6.658;2024-03-29T09:29:37;13.30;12.70
51841;DHT22;37888;53.246;6.658;2024-03-29T09:32:04;13.10;9.60
51841;DHT22;37888;53.246;6.658;2024-03-29T09:34:30;13.10;13.00
51841;DHT22;37888;53.246;6.658;2024-03-29T09:36:59;13.10;13.60
51841;DHT22;37888;53.246;6.658;2024-03-29T09:39:24;13.20;11.80
51841;DHT22;37888;53.246;6.658;2024-03-29T09:41:50;13.10;15.70
51841;DHT22;37888;53.246;6.658;2024-03-29T09:44:17;13.10;16.60
51841;DHT22;37888;53.246;6.658;2024-03-29T09:46:43;13.10;16.20
51841;DHT22;37888;53.246;6.658;2024-03-29T09:49:08;13.10;16.40
51841;DHT22;37888;53.246;6.658;2024-03-29T09:51:37;13.20;14.20
51841;DHT22;37888;53.246;6.658;2024-03-29T09:54:05;13.40;14.60
51841;DHT22;37888;53.246;6.658;2024-03-29T09:56:33;13.50;18.20
51841;DHT22;37888;53.246;6.658;2024-03-29T10:01:27;13.80;11.80
51841;DHT22;37888;53.246;6.658;2024-03-29T10:03:53;13.90;12.00
51841;DHT22;37888;53.246;6.658;2024-03-29T10:06:20;14.00;11.90
51841;DHT22;37888;53.246;6.658;2024-03-29T10:08:46;13.80;8.60
51841;DHT22;37888;53.246;6.658;2024-03-29T10:11:13;13.80;11.20
51841;DHT22;37888;53.246;6.658;2024-03-29T10:13:42;13.80;12.90
51841;DHT22;37888;53.246;6.658;2024-03-29T10:16:09;13.80;12.10
51841;DHT22;37888;53.246;6.658;2024-03-29T10:18:37;13.60;12.00
51841;DHT22;37888;53.246;6.658;2024-03-29T10:21:06;13.40;11.00
51841;DHT22;37888;53.246;6.658;2024-03-29T10:23:33;13.70;15.50
51841;DHT22;37888;53.246;6.658;2024-03-29T10:26:00;13.80;14.70
51841;DHT22;37888;53.246;6.658;2024-03-29T10:28:36;13.80;14.20
51841;DHT22;37888;53.246;6.658;2024-03-29T10:31:02;13.70;15.00
51841;DHT22;37888;53.246;6.658;2024-03-29T10:33:29;13.90;18.60
51841;DHT22;37888;53.246;6.658;2024-03-29T10:35:55;14.00;23.70
51841;DHT22;37888;53.246;6.658;2024-03-29T10:38:21;14.10;21.00
51841;DHT22;37888;53.246;6.658;2024-03-29T10:40:47;14.00;15.40
51841;DHT22;37888;53.246;6.658;2024-03-29T10:43:13;13.90;12.60
51841;DHT22;37888;53.246;6.658;2024-03-29T10:45:42;14.00;13.40
51841;DHT22;37888;53.246;6.658;2024-03-29T10:48:08;13.50;13.60
51841;DHT22;37888;53.246;6.658;2024-03-29T10:50:38;14.20;12.70
51841;DHT22;37888;53.246;6.658;2024-03-29T10:53:06;14.30;22.20
51841;DHT22;37888;53.246;6.658;2024-03-29T10:55:35;14.10;13.30
51841;DHT22;37888;53.246;6.658;2024-03-29T10:58:02;14.30;7.30
51841;DHT22;37888;53.246;6.658;2024-03-29T11:00:29;14.20;10.30
51841;DHT22;37888;53.246;6.658;2024-03-29T11:02:57;14.60;13.10
51841;DHT22;37888;53.246;6.658;2024-03-29T11:05:29;14.70;9.70
51841;DHT22;37888;53.246;6.658;2024-03-29T11:07:56;15.10;14.20
51841;DHT22;37888;53.246;6.658;2024-03-29T11:10:25;14.70;20.70
51841;DHT22;37888;53.246;6.658;2024-03-29T11:13:10;14.90;20.80
51841;DHT22;37888;53.246;6.658;2024-03-29T11:15:38;14.80;30.10
51841;DHT22;37888;53.246;6.658;2024-03-29T11:18:05;14.60;36.80
51841;DHT22;37888;53.246;6.658;2024-03-29T11:20:32;14.50;37.20
51841;DHT22;37888;53.246;6.658;2024-03-29T11:23:05;14.40;35.50
51841;DHT22;37888;53.246;6.658;2024-03-29T11:25:38;14.20;38.70
51841;DHT22;37888;53.246;6.658;2024-03-29T11:28:05;14.00;15.90
51841;DHT22;37888;53.246;6.658;2024-03-29T11:30:39;14.10;11.90
51841;DHT22;37888;53.246;6.658;2024-03-29T11:33:05;14.10;14.30
51841;DHT22;37888;53.246;6.658;2024-03-29T11:35:30;14.00;12.00
51841;DHT22;37888;53.246;6.658;2024-03-29T11:38:01;13.90;8.00
51841;DHT22;37888;53.246;6.658;2024-03-29T11:40:30;13.90;10.70
51841;DHT22;37888;53.246;6.658;2024-03-29T11:42:55;14.00;8.70
51841;DHT22;37888;53.246;6.658;2024-03-29T11:45:23;13.80;9.80
51841;DHT22;37888;53.246;6.658;2024-03-29T11:47:54;13.60;13.10
51841;DHT22;37888;53.246;6.658;2024-03-29T11:50:20;13.50;11.00
51841;DHT22;37888;53.246;6.658;2024-03-29T11:52:46;13.60;11.70
51841;DHT22;37888;53.246;6.658;2024-03-29T11:55:11;13.50;14.20
51841;DHT22;37888;53.246;6.658;2024-03-29T11:57:37;13.70;14.00
51841;DHT22;37888;53.246;6.658;2024-03-29T12:00:06;13.90;12.70
51841;DHT22;37888;53.246;6.658;2024-03-29T12:02:32;14.00;9.60
51841;DHT22;37888;53.246;6.658;2024-03-29T12:04:58;14.20;10.50
51841;DHT22;37888;53.246;6.658;2024-03-29T12:07:23;14.00;11.40
51841;DHT22;37888;53.246;6.658;2024-03-29T13:03:29;13.30;24.10
51841;DHT22;37888;53.246;6.658;2024-03-29T13:05:54;14.80;29.90
51841;DHT22;37888;53.246;6.658;2024-03-29T13:08:20;15.10;33.40
51841;DHT22;37888;53.246;6.658;2024-03-29T13:10:45;15.20;27.00
51841;DHT22;37888;53.246;6.658;2024-03-29T13:20:29;15.60;20.40
51841;DHT22;37888;53.246;6.658;2024-03-29T13:22:55;15.60;23.40
51841;DHT22;37888;53.246;6.658;2024-03-29T13:25:21;15.50;21.00
51841;DHT22;37888;53.246;6.658;2024-03-29T13:27:48;15.60;21.80
51841;DHT22;37888;53.246;6.658;2024-03-29T13:30:14;15.90;18.30
51841;DHT22;37888;53.246;6.658;2024-03-29T13:32:41;15.80;10.50
51841;DHT22;37888;53.246;6.658;2024-03-29T13:35:07;15.90;9.50
51841;DHT22;37888;53.246;6.658;2024-03-29T13:37:38;15.70;8.00
51841;DHT22;37888;53.246;6.658;2024-03-29T13:40:05;15.40;9.40
51841;DHT22;37888;53.246;6.658;2024-03-29T13:42:31;15.50;9.90
51841;DHT22;37888;53.246;6.658;2024-03-29T13:44:57;15.30;10.70
51841;DHT22;37888;53.246;6.658;2024-03-29T13:47:22;15.40;12.70
51841;DHT22;37888;53.246;6.658;2024-03-29T13:52:18;15.20;5.80
51841;DHT22;37888;53.246;6.658;2024-03-29T13:57:12;14.90;6.50
51841;DHT22;37888;53.246;6.658;2024-03-29T13:59:38;14.90;7.60
51841;DHT22;37888;53.246;6.658;2024-03-29T14:02:03;14.40;7.80
51841;DHT22;37888;53.246;6.658;2024-03-29T14:04:29;14.50;12.10
51841;DHT22;37888;53.246;6.658;2024-03-29T14:11:48;14.40;19.10
51841;DHT22;37888;53.246;6.658;2024-03-29T14:14:13;14.50;19.60
51841;DHT22;37888;53.246;6.658;2024-03-29T14:16:39;14.40;19.70
51841;DHT22;37888;53.246;6.658;2024-03-29T14:19:05;14.40;20.40
51841;DHT22;37888;53.246;6.658;2024-03-29T14:21:30;14.50;21.90
51841;DHT22;37888;53.246;6.658;2024-03-29T14:23:57;14.50;21.30
51841;DHT22;37888;53.246;6.658;2024-03-29T14:26:22;14.40;22.80
51841;DHT22;37888;53.246;6.658;2024-03-29T14:28:48;14.50;22.70
51841;DHT22;37888;53.246;6.658;2024-03-29T14:31:14;14.50;20.90
51841;DHT22;37888;53.246;6.658;2024-03-29T14:33:39;14.40;21.50
51841;DHT22;37888;53.246;6.658;2024-03-29T14:36:05;14.40;20.70
51841;DHT22;37888;53.246;6.658;2024-03-29T14:38:30;14.40;21.20
51841;DHT22;37888;53.246;6.658;2024-03-29T14:40:56;14.40;21.20
51841;DHT22;37888;53.246;6.658;2024-03-29T14:43:22;14.30;20.40
51841;DHT22;37888;53.246;6.658;2024-03-29T14:45:48;14.50;21.70
51841;DHT22;37888;53.246;6.658;2024-03-29T14:48:17;14.30;21.90
51841;DHT22;37888;53.246;6.658;2024-03-29T14:50:43;14.30;20.80
51841;DHT22;37888;53.246;6.658;2024-03-29T14:53:09;14.00;22.70
51841;DHT22;37888;53.246;6.658;2024-03-29T14:55:35;13.40;21.30
51841;DHT22;37888;53.246;6.658;2024-03-29T14:58:05;14.00;23.40
51841;DHT22;37888;53.246;6.658;2024-03-29T15:00:30;14.00;21.30
51841;DHT22;37888;53.246;6.658;2024-03-29T15:02:56;14.00;22.30
51841;DHT22;37888;53.246;6.658;2024-03-29T15:05:22;14.10;22.90
51841;DHT22;37888;53.246;6.658;2024-03-29T15:07:49;14.00;22.90
51841;DHT22;37888;53.246;6.658;2024-03-29T15:10:14;14.00;22.20
51841;DHT22;37888;53.246;6.658;2024-03-29T15:12:41;14.00;22.90
51841;DHT22;37888;53.246;6.658;2024-03-29T15:15:06;14.00;23.90
51841;DHT22;37888;53.246;6.658;2024-03-29T15:17:32;14.00;24.10
51841;DHT22;37888;53.246;6.658;2024-03-29T15:19:58;14.30;26.00
51841;DHT22;37888;53.246;6.658;2024-03-29T15:22:23;14.20;26.10
51841;DHT22;37888;53.246;6.658;2024-03-29T15:24:49;14.30;25.50
51841;DHT22;37888;53.246;6.658;2024-03-29T15:27:15;14.10;25.80
51841;DHT22;37888;53.246;6.658;2024-03-29T15:30:16;14.00;23.10
51841;DHT22;37888;53.246;6.658;2024-03-29T15:32:41;14.00;24.60
51841;DHT22;37888;53.246;6.658;2024-03-29T15:35:07;13.90;28.90
51841;DHT22;37888;53.246;6.658;2024-03-29T15:37:33;14.00;29.40
51841;DHT22;37888;53.246;6.658;2024-03-29T15:39:59;13.50;29.70
51841;DHT22;37888;53.246;6.658;2024-03-29T15:42:24;14.00;29.10
51841;DHT22;37888;53.246;6.658;2024-03-29T15:44:50;13.80;29.10
51841;DHT22;37888;53.246;6.658;2024-03-29T16:11:36;14.00;36.00
51841;DHT22;37888;53.246;6.658;2024-03-29T16:18:55;13.80;17.70
51841;DHT22;37888;53.246;6.658;2024-03-29T16:21:20;13.50;12.80
51841;DHT22;37888;53.246;6.658;2024-03-29T16:23:46;13.60;13.90
51841;DHT22;37888;53.246;6.658;2024-03-29T16:26:12;13.30;15.00
51841;DHT22;37888;53.246;6.658;2024-03-29T16:28:37;13.50;14.40
51841;DHT22;37888;53.246;6.658;2024-03-29T16:31:03;13.40;16.90
51841;DHT22;37888;53.246;6.658;2024-03-29T16:33:28;13.50;20.30
51841;DHT22;37888;53.246;6.658;2024-03-29T16:43:12;13.30;36.50
51841;DHT22;37888;53.246;6.658;2024-03-29T16:48:04;13.10;26.60
51841;DHT22;37888;53.246;6.658;2024-03-29T16:50:30;13.20;28.20
51841;DHT22;37888;53.246;6.658;2024-03-29T16:55:21;13.10;12.40
51841;DHT22;37888;53.246;6.658;2024-03-29T16:57:47;13.10;12.80
51841;DHT22;37888;53.246;6.658;2024-03-29T17:00:13;13.00;14.00
51841;DHT22;37888;53.246;6.658;2024-03-29T17:02:40;13.00;14.40
51841;DHT22;37888;53.246;6.658;2024-03-29T17:05:06;13.00;14.80
51841;DHT22;37888;53.246;6.658;2024-03-29T17:09:58;13.00;10.60
51841;DHT22;37888;53.246;6.658;2024-03-29T17:12:24;12.90;14.00
51841;DHT22;37888;53.246;6.658;2024-03-29T17:14:56;12.90;23.90
51841;DHT22;37888;53.246;6.658;2024-03-29T17:17:23;12.70;15.70
51841;DHT22;37888;53.246;6.658;2024-03-29T17:22:15;12.70;12.90
51841;DHT22;37888;53.246;6.658;2024-03-29T17:27:07;12.40;8.30
51841;DHT22;37888;53.246;6.658;2024-03-29T17:29:33;12.30;9.00
51841;DHT22;37888;53.246;6.658;2024-03-29T17:32:00;12.20;9.00
51841;DHT22;37888;53.246;6.658;2024-03-29T17:34:26;12.20;9.30
51841;DHT22;37888;53.246;6.658;2024-03-29T17:36:52;12.10;9.30
51841;DHT22;37888;53.246;6.658;2024-03-29T17:39:17;12.10;9.40
51841;DHT22;37888;53.246;6.658;2024-03-29T17:41:44;12.00;10.10
51841;DHT22;37888;53.246;6.658;2024-03-29T17:44:09;11.90;9.90
51841;DHT22;37888;53.246;6.658;2024-03-29T17:46:38;11.90;10.80
51841;DHT22;37888;53.246;6.658;2024-03-29T17:49:04;11.80;10.70
51841;DHT22;37888;53.246;6.658;2024-03-29T17:51:29;11.70;10.80
51841;DHT22;37888;53.246;6.658;2024-03-29T17:53:55;11.60;11.40
51841;DHT22;37888;53.246;6.658;2024-03-29T17:56:21;11.60;14.00
51841;DHT22;37888;53.246;6.658;2024-03-29T17:58:46;11.50;12.80
51841;DHT22;37888;53.246;6.658;2024-03-29T18:01:12;11.50;13.70
51841;DHT22;37888;53.246;6.658;2024-03-29T18:03:40;11.40;13.00
51841;DHT22;37888;53.246;6.658;2024-03-29T18:06:05;11.30;12.60
51841;DHT22;37888;53.246;6.658;2024-03-29T18:08:31;11.20;14.00
51841;DHT22;37888;53.246;6.658;2024-03-29T18:10:57;11.20;15.30
51841;DHT22;37888;53.246;6.658;2024-03-29T18:20:41;11.00;20.20
51841;DHT22;37888;53.246;6.658;2024-03-29T18:23:07;11.00;22.90
51841;DHT22;37888;53.246;6.658;2024-03-29T18:25:33;10.90;24.10
51841;DHT22;37888;53.246;6.658;2024-03-29T18:28:01;10.70;20.40
51841;DHT22;37888;53.246;6.658;2024-03-29T18:30:31;10.60;19.80
51841;DHT22;37888;53.246;6.658;2024-03-29T18:40:16;10.30;22.40
51841;DHT22;37888;53.246;6.658;2024-03-29T18:42:41;10.20;25.10
51841;DHT22;37888;53.246;6.658;2024-03-29T18:45:07;10.00;27.90
51841;DHT22;37888;53.246;6.658;2024-03-29T18:47:33;9.90;28.60
51841;DHT22;37888;53.246;6.658;2024-03-29T18:49:59;9.80;29.40
51841;DHT22;37888;53.246;6.658;2024-03-29T18:52:27;9.70;31.40
51841;DHT22;37888;53.246;6.658;2024-03-29T18:54:53;9.70;32.30
51841;DHT22;37888;53.246;6.658;2024-03-29T18:57:18;9.60;32.90
51841;DHT22;37888;53.246;6.658;2024-03-29T18:59:44;9.60;33.80
51841;DHT22;37888;53.246;6.658;2024-03-29T19:02:09;9.60;35.10
51841;DHT22;37888;53.246;6.658;2024-03-29T19:04:35;9.60;35.80
51841;DHT22;37888;53.246;6.658;2024-03-29T19:07:02;9.60;35.10
51841;DHT22;37888;53.246;6.658;2024-03-29T19:09:28;9.50;37.00
51841;DHT22;37888;53.246;6.658;2024-03-29T19:11:54;9.50;37.30
51841;DHT22;37888;53.246;6.658;2024-03-29T19:14:20;9.50;37.90
51841;DHT22;37888;53.246;6.658;2024-03-29T19:16:51;9.50;40.10
51841;DHT22;37888;53.246;6.658;2024-03-29T19:19:17;9.50;40.80
51841;DHT22;37888;53.246;6.658;2024-03-29T19:21:49;9.50;41.50
51841;DHT22;37888;53.246;6.658;2024-03-29T19:24:20;9.50;41.10
51841;DHT22;37888;53.246;6.658;2024-03-29T19:26:46;9.40;42.00
51841;DHT22;37888;53.246;6.658;2024-03-29T19:31:38;9.50;78.60
51841;DHT22;37888;53.246;6.658;2024-03-29T20:49:40;9.30;93.10
51841;DHT22;37888;53.246;6.658;2024-03-29T20:54:34;9.20;92.80
51841;DHT22;37888;53.246;6.658;2024-03-29T20:57:00;9.40;93.60
51841;DHT22;37888;53.246;6.658;2024-03-29T20:59:26;9.40;95.50
